Time;durP1;ratioP1;P1;durP2;ratioP2;P2;SDS_P1;SDS_P2;PMS_P1;PMS_P2;Temp;Humidity;BMP_temperature;BMP_pressure;BME280_temperature;BME280_humidity;BME280_pressure;Samples;Min_cycle;Max_cycle;Signal;HPM_P1;HPM_P2
2024/03/15 00:00:40;;;;;;;12.25;7.63;;;;;;;9.52;100.00;100738.13;6122781;23;20023;-76
2024/03/15 00:03:06;;;;;;;11.05;6.97;;;;;;;9.52;100.00;100730.13;6098673;23;20078;-73
2024/03/15 00:05:32;;;;;;;9.75;7.60;;;;;;;9.56;100.00;100731.22;6147483;23;20017;-76
2024/03/15 00:07:57;;;;;;;9.20;6.53;;;;;;;9.58;100.00;100726.38;6122810;23;20020;-75
2024/03/15 00:10:23;;;;;;;10.25;7.53;;;;;;;9.58;100.00;100726.38;6122976;23;20028;-76
2024/03/15 00:12:51;;;;;;;10.90;6.88;;;;;;;9.60;100.00;100726.13;6147606;23;20043;-75
2024/03/15 00:15:18;;;;;;;8.93;6.72;;;;;;;9.61;100.00;100716.22;6148161;23;20020;-76
2024/03/15 00:17:44;;;;;;;10.63;7.13;;;;;;;9.65;100.00;100722.66;6121293;23;20046;-73
2024/03/15 00:20:11;;;;;;;9.23;7.07;;;;;;;9.67;100.00;100732.03;6123146;23;20100;-74
2024/03/15 00:22:37;;;;;;;10.75;7.65;;;;;;;9.68;100.00;100727.47;6122024;23;20009;-73
2024/03/15 00:25:03;;;;;;;12.40;8.00;;;;;;;9.68;100.00;100724.81;6121689;23;20059;-73
2024/03/15 00:27:29;;;;;;;11.40;7.60;;;;;;;9.68;100.00;100724.81;6121025;23;20752;-73
2024/03/15 00:29:55;;;;;;;9.13;7.25;;;;;;;9.68;100.00;100719.44;6146388;23;20021;-74
2024/03/15 00:32:20;;;;;;;12.40;8.02;;;;;;;9.67;100.00;100715.97;6121198;23;20102;-73
2024/03/15 00:34:46;;;;;;;9.63;6.72;;;;;;;9.67;100.00;100718.66;6173135;23;20477;-75
2024/03/15 00:37:12;;;;;;;10.63;6.93;;;;;;;9.67;100.00;100713.31;6096487;23;20023;-73
2024/03/15 00:39:37;;;;;;;9.52;6.95;;;;;;;9.67;100.00;100712.50;6124963;23;20004;-75
2024/03/15 00:42:03;;;;;;;10.80;7.03;;;;;;;9.67;100.00;100705.28;6149536;23;20028;-76
2024/03/15 00:44:29;;;;;;;10.70;7.70;;;;;;;9.68;100.00;100698.88;6147956;23;20451;-76
2024/03/15 00:46:55;;;;;;;10.65;7.32;;;;;;;9.68;100.00;100700.72;6150752;23;20021;-75
2024/03/15 00:49:21;;;;;;;10.45;7.70;;;;;;;9.68;100.00;100696.19;6173795;23;20850;-75
2024/03/15 00:51:50;;;;;;;10.57;7.35;;;;;;;9.69;100.00;100708.53;6172279;23;20721;-76
2024/03/15 00:54:16;;;;;;;11.75;7.63;;;;;;;9.73;100.00;100698.06;6122831;23;20013;-75
2024/03/15 00:56:42;;;;;;;10.23;7.50;;;;;;;9.70;100.00;100683.38;6146480;23;20009;-79
2024/03/15 00:59:08;;;;;;;11.05;7.95;;;;;;;9.72;100.00;100691.94;6146892;23;20348;-77
2024/03/15 01:01:35;;;;;;;10.75;7.13;;;;;;;9.72;100.00;100693.81;6146478;23;20020;-75
2024/03/15 01:04:01;;;;;;;11.80;7.18;;;;;;;9.73;100.00;100684.72;6148585;23;20009;-76
2024/03/15 01:06:28;;;;;;;9.80;7.22;;;;;;;9.69;100.00;100681.78;6122291;23;20013;-78
2024/03/15 01:08:53;;;;;;;9.23;6.50;;;;;;;9.71;100.00;100676.97;6121460;23;20023;-78
2024/03/15 01:11:20;;;;;;;12.23;7.93;;;;;;;9.72;100.00;100680.44;6174218;23;20013;-74
2024/03/15 01:13:46;;;;;;;10.30;7.53;;;;;;;9.71;100.00;100668.94;6146433;23;20020;-74
2024/03/15 01:16:11;;;;;;;10.32;7.15;;;;;;;9.72;100.00;100669.72;6174214;23;20413;-77
2024/03/15 01:18:38;;;;;;;11.20;8.13;;;;;;;9.74;100.00;100670.25;6122668;23;20020;-78
2024/03/15 01:21:04;;;;;;;11.65;7.72;;;;;;;9.74;100.00;100673.75;6124074;23;20012;-79
2024/03/15 01:23:31;;;;;;;11.18;7.07;;;;;;;9.74;100.00;100668.38;6173958;23;20347;-78
2024/03/15 01:25:57;;;;;;;9.75;7.30;;;;;;;9.73;100.00;100663.31;6147955;23;20095;-75
2024/03/15 01:28:23;;;;;;;10.95;7.40;;;;;;;9.69;100.00;100659.59;6146267;23;20096;-75
2024/03/15 01:30:49;;;;;;;12.88;8.20;;;;;;;9.68;100.00;100663.28;6147705;23;20013;-76
2024/03/15 01:33:15;;;;;;;10.02;7.35;;;;;;;9.68;100.00;100663.28;6147436;23;20027;-78
2024/03/15 01:35:42;;;;;;;12.35;7.88;;;;;;;9.65;100.00;100661.16;6148674;23;20020;-78
2024/03/15 01:38:08;;;;;;;9.93;7.13;;;;;;;9.64;100.00;100662.25;6172060;23;20023;-76
2024/03/15 01:40:35;;;;;;;10.02;7.28;;;;;;;9.59;100.00;100660.34;6123180;23;20016;-77
2024/03/15 01:43:01;;;;;;;10.70;7.20;;;;;;;9.54;100.00;100661.13;6123542;23;20025;-78
2024/03/15 01:45:28;;;;;;;9.75;7.38;;;;;;;9.52;100.00;100662.47;6120491;23;20024;-76
2024/03/15 01:47:55;;;;;;;10.15;6.65;;;;;;;9.47;100.00;100651.75;6174350;23;20021;-77
2024/03/15 01:50:22;;;;;;;10.25;7.00;;;;;;;9.43;100.00;100656.06;6147763;23;20028;-77
2024/03/15 01:52:50;;;;;;;9.18;6.90;;;;;;;9.38;100.00;100648.81;6123474;23;20023;-76
2024/03/15 01:55:16;;;;;;;10.68;7.22;;;;;;;9.33;100.00;100651.47;6097432;23;20032;-76
2024/03/15 01:57:42;;;;;;;8.95;6.55;;;;;;;9.27;100.00;100650.63;6172522;23;20021;-77
2024/03/15 02:00:13;;;;;;;10.68;6.97;;;;;;;9.22;100.00;100644.50;6142404;23;20024;-77
2024/03/15 02:02:43;;;;;;;9.88;6.40;;;;;;;9.15;100.00;100649.28;6117819;23;20612;-78
2024/03/15 02:05:10;;;;;;;10.35;6.07;;;;;;;9.09;100.00;100651.13;6093856;23;20017;-78
2024/03/15 02:07:36;;;;;;;8.50;6.90;;;;;;;8.99;100.00;100643.06;6117078;23;20017;-78
2024/03/15 02:10:11;;;;;;;9.52;6.50;;;;;;;8.92;100.00;100639.84;6118523;23;20337;-77
2024/03/15 02:12:38;;;;;;;9.77;6.57;;;;;;;8.83;100.00;100647.56;6117864;23;20022;-78
2024/03/15 02:15:08;;;;;;;11.82;7.80;;;;;;;8.73;100.00;100640.28;6093732;23;20053;-79
2024/03/15 02:17:37;;;;;;;9.43;7.10;;;;;;;8.66;100.00;100638.91;6068673;23;20158;-79
2024/03/15 02:20:06;;;;;;;9.05;6.82;;;;;;;8.59;100.00;100638.34;6118429;23;20399;-80
2024/03/15 02:22:34;;;;;;;9.93;6.88;;;;;;;8.53;100.00;100636.69;6116731;23;20078;-79
2024/03/15 02:25:00;;;;;;;11.63;7.65;;;;;;;8.46;100.00;100637.72;6069093;23;20022;-80
2024/03/15 02:27:28;;;;;;;10.48;7.22;;;;;;;8.45;100.00;100633.44;6069407;23;20036;-79
2024/03/15 02:29:55;;;;;;;10.80;6.55;;;;;;;8.39;100.00;100642.47;6094765;23;20099;-81
2024/03/15 02:32:23;;;;;;;11.95;8.05;;;;;;;8.38;100.00;100635.53;6093693;23;20452;-79
2024/03/15 02:34:51;;;;;;;12.50;7.70;;;;;;;8.36;100.00;100636.88;6117970;23;20629;-79
2024/03/15 02:37:17;;;;;;;9.15;6.90;;;;;;;8.32;100.00;100631.19;6047068;23;20028;-80
2024/03/15 02:39:43;;;;;;;11.45;8.23;;;;;;;8.31;100.00;100618.94;6093523;23;20013;-78
2024/03/15 02:42:10;;;;;;;13.55;8.50;;;;;;;8.32;100.00;100631.19;6144299;23;20017;-80
2024/03/15 02:44:38;;;;;;;10.27;7.70;;;;;;;8.26;100.00;100632.22;6117072;23;20024;-80
2024/03/15 02:47:03;;;;;;;9.43;6.63;;;;;;;8.17;100.00;100623.09;6117301;23;20443;-80
2024/03/15 02:49:29;;;;;;;10.05;7.85;;;;;;;8.13;100.00;100614.03;6117462;23;20017;-77
2024/03/15 02:51:55;;;;;;;9.40;6.88;;;;;;;8.06;100.00;100618.75;6119883;23;20156;-77
2024/03/15 02:54:21;;;;;;;10.70;6.95;;;;;;;8.01;100.00;100613.41;6119418;23;20017;-77
2024/03/15 02:56:46;;;;;;;12.85;8.75;;;;;;;8.00;100.00;100611.78;6120008;23;20005;-77
2024/03/15 02:59:12;;;;;;;10.50;6.88;;;;;;;7.94;100.00;100601.06;6129143;23;20475;-80
2024/03/15 03:01:38;;;;;;;9.75;7.43;;;;;;;7.92;100.00;100611.19;6144741;23;20069;-77
2024/03/15 03:04:05;;;;;;;12.15;8.45;;;;;;;7.92;100.00;100607.69;6120908;23;20017;-77
2024/03/15 03:06:36;;;;;;;11.00;6.90;;;;;;;7.90;100.00;100602.63;6144600;23;20040;-77
2024/03/15 03:09:02;;;;;;;8.93;7.25;;;;;;;7.90;100.00;100612.50;6144533;23;20044;-78
2024/03/15 03:11:27;;;;;;;10.98;7.28;;;;;;;7.92;100.00;100615.69;6096735;23;20355;-77
2024/03/15 03:13:53;;;;;;;10.90;6.93;;;;;;;7.94;100.00;100625.06;6119691;23;20077;-78
2024/03/15 03:16:20;;;;;;;11.18;7.65;;;;;;;7.92;100.00;100616.53;6120309;23;20021;-80
2024/03/15 03:18:46;;;;;;;;;;;;;;;7.91;100.00;100609.56;6145053;23;20013;-77
2024/03/15 03:21:12;;;;;;;11.68;6.85;;;;;;;7.87;100.00;100607.69;6145304;23;19920;-78
2024/03/15 03:23:38;;;;;;;10.80;7.18;;;;;;;7.83;100.00;100606.56;6095595;23;20071;-78
2024/03/15 03:26:05;;;;;;;9.73;7.65;;;;;;;7.78;100.00;100612.66;6169852;23;20033;-80
2024/03/15 03:28:31;;;;;;;9.30;6.85;;;;;;;7.73;100.00;100606.50;6120467;23;20037;-77
2024/03/15 03:30:57;;;;;;;11.27;7.53;;;;;;;7.69;100.00;100610.72;6146198;23;20020;-80
2024/03/15 03:33:22;;;;;;;9.18;6.68;;;;;;;7.65;100.00;100610.41;6144714;23;20434;-78
2024/03/15 03:35:48;;;;;;;11.43;7.90;;;;;;;7.63;100.00;100602.69;6120180;23;20088;-78
2024/03/15 03:38:14;;;;;;;10.52;7.45;;;;;;;7.62;100.00;100600.28;6143843;23;20021;-78
2024/03/15 03:40:41;;;;;;;10.45;7.15;;;;;;;7.59;100.00;100601.59;6146734;23;20009;-79
2024/03/15 03:43:07;;;;;;;9.05;6.32;;;;;;;7.55;100.00;100594.34;6094989;23;20013;-76
2024/03/15 03:45:36;;;;;;;10.18;7.20;;;;;;;7.52;100.00;100600.16;6143574;23;20044;-79
2024/03/15 03:48:03;;;;;;;11.93;7.50;;;;;;;7.51;100.00;100593.22;6119491;23;20097;-75
2024/03/15 03:50:28;;;;;;;13.25;7.78;;;;;;;7.48;100.00;100588.41;6120112;23;20649;-75
2024/03/15 03:52:55;;;;;;;11.43;7.30;;;;;;;7.46;100.00;100602.00;6118158;23;20048;-77
2024/03/15 03:55:21;;;;;;;12.95;7.95;;;;;;;7.43;100.00;100602.47;6145948;23;20055;-74
2024/03/15 03:57:47;;;;;;;9.90;7.10;;;;;;;7.44;100.00;100608.63;6168250;23;20452;-77
2024/03/15 04:00:16;;;;;;;10.68;7.38;;;;;;;7.43;100.00;100607.81;6122840;23;20027;-76
2024/03/15 04:02:46;;;;;;;11.02;7.72;;;;;;;7.43;100.00;100596.34;6119111;23;20056;-77
2024/03/15 04:05:13;;;;;;;11.15;8.05;;;;;;;7.46;100.00;100601.19;6091008;23;20025;-76
2024/03/15 04:07:39;;;;;;;11.43;8.30;;;;;;;7.49;100.00;100595.34;6119022;23;20017;-77
2024/03/15 04:10:07;;;;;;;9.23;6.22;;;;;;;7.49;100.00;100595.34;6119978;23;20017;-75
2024/03/15 04:12:33;;;;;;;9.63;6.88;;;;;;;7.49;100.00;100590.03;6119463;23;20116;-75
2024/03/15 04:15:02;;;;;;;12.73;9.00;;;;;;;7.49;100.00;100590.03;6119904;23;20022;-77
2024/03/15 04:17:27;;;;;;;11.48;8.00;;;;;;;7.52;100.00;100589.50;6095224;23;20021;-77
2024/03/15 04:19:53;;;;;;;11.80;7.63;;;;;;;7.53;100.00;100591.94;6095031;23;20028;-78
2024/03/15 04:22:22;;;;;;;11.52;8.25;;;;;;;7.52;100.00;100590.34;6119332;23;20029;-77
2024/03/15 04:24:51;;;;;;;9.77;7.32;;;;;;;7.56;100.00;100587.94;6145363;23;20302;-78
2024/03/15 04:27:18;;;;;;;10.85;7.65;;;;;;;7.58;100.00;100588.50;6145238;23;20017;-76
2024/03/15 04:29:44;;;;;;;11.70;7.78;;;;;;;7.58;100.00;100588.50;6118439;23;20021;-77
2024/03/15 04:32:10;;;;;;;9.98;7.70;;;;;;;7.58;100.00;100586.63;6120633;23;20045;-77
2024/03/15 04:34:40;;;;;;;11.75;8.45;;;;;;;7.59;100.00;100590.13;6095855;23;20636;-77
2024/03/15 04:37:11;;;;;;;13.00;9.02;;;;;;;7.59;100.00;100587.47;6120204;23;20464;-76
2024/03/15 04:39:37;;;;;;;13.38;8.40;;;;;;;7.59;100.00;100579.47;6096680;23;20085;-78
2024/03/15 04:42:04;;;;;;;12.02;8.73;;;;;;;7.58;100.00;100577.84;6095464;23;20045;-76
2024/03/15 04:44:36;;;;;;;12.65;8.80;;;;;;;7.59;100.00;100579.47;6096567;23;20091;-78
2024/03/15 04:47:03;;;;;;;13.48;8.70;;;;;;;7.58;100.00;100570.63;6095914;23;20160;-77
2024/03/15 04:49:29;;;;;;;11.77;7.95;;;;;;;7.60;100.00;100576.53;6097241;23;20025;-77
2024/03/15 04:51:55;;;;;;;11.93;8.60;;;;;;;7.61;100.00;100572.81;6096252;23;20033;-78
2024/03/15 04:54:21;;;;;;;10.52;8.07;;;;;;;7.62;100.00;100573.63;6119923;23;20080;-76
2024/03/15 04:56:48;;;;;;;;;;;;;;;7.63;100.00;100575.22;6096501;23;20112;-78
2024/03/15 04:59:13;;;;;;;12.45;9.07;;;;;;;7.61;100.00;100569.34;6105264;23;19955;-77
2024/03/15 05:01:40;;;;;;;13.15;8.77;;;;;;;7.60;100.00;100570.41;6145344;23;20561;-77
2024/03/15 05:04:06;;;;;;;14.05;8.23;;;;;;;7.57;100.00;100566.38;6096948;23;20017;-77
2024/03/15 05:06:32;;;;;;;13.65;8.93;;;;;;;7.55;100.00;100573.03;6121026;23;20067;-77
2024/03/15 05:08:58;;;;;;;14.13;9.40;;;;;;;7.54;100.00;100555.44;6119840;23;20047;-77
2024/03/15 05:11:24;;;;;;;13.88;9.30;;;;;;;7.54;100.00;100560.75;6096239;23;20017;-77
2024/03/15 05:13:50;;;;;;;;;;;;;;;7.52;100.00;100565.53;6147291;23;20021;-76
2024/03/15 05:16:17;;;;;;;11.88;8.27;;;;;;;7.49;100.00;100558.03;6145104;23;19919;-75
2024/03/15 05:18:42;;;;;;;12.02;9.35;;;;;;;7.45;100.00;100562.25;6119240;23;20025;-77
2024/03/15 05:21:09;;;;;;;13.10;9.73;;;;;;;7.43;100.00;100565.19;6120807;23;20600;-75
2024/03/15 05:23:37;;;;;;;14.30;9.65;;;;;;;7.38;100.00;100552.63;6095179;23;20510;-76
2024/03/15 05:26:06;;;;;;;12.20;8.60;;;;;;;7.35;100.00;100555.78;6120167;23;20022;-74
2024/03/15 05:28:33;;;;;;;10.00;7.45;;;;;;;7.33;100.00;100549.91;6095335;23;20442;-77
2024/03/15 05:30:59;;;;;;;13.20;9.93;;;;;;;7.34;100.00;100550.72;6144859;23;20023;-76
2024/03/15 05:33:25;;;;;;;;;;;;;;;7.38;100.00;100557.97;6119686;23;20028;-75
2024/03/15 05:35:51;;;;;;;16.70;9.70;;;;;;;7.43;100.00;100556.38;6144499;23;20552;-77
2024/03/15 05:38:17;;;;;;;16.00;10.60;;;;;;;7.50;100.00;100570.31;6119700;23;20017;-75
2024/03/15 05:40:43;;;;;;;15.07;9.50;;;;;;;7.51;100.00;100569.25;6145002;23;20010;-74
2024/03/15 05:43:09;;;;;;;13.90;10.32;;;;;;;7.54;100.00;100574.88;6144974;23;20013;-75
2024/03/15 05:45:35;;;;;;;15.82;10.55;;;;;;;7.58;100.00;100567.97;6146636;23;20025;-75
2024/03/15 05:48:01;;;;;;;15.20;9.57;;;;;;;7.61;100.00;100572.00;6145315;23;20024;-75
2024/03/15 05:50:29;;;;;;;12.52;9.75;;;;;;;7.65;100.00;100567.75;6146978;23;20072;-74
2024/03/15 05:52:54;;;;;;;14.98;9.80;;;;;;;7.69;100.00;100558.22;6095186;23;20013;-75
2024/03/15 05:55:20;;;;;;;17.02;10.35;;;;;;;7.79;100.00;100566.31;6120208;23;20419;-74
2024/03/15 05:57:45;;;;;;;18.10;11.98;;;;;;;7.90;100.00;100570.63;6143660;23;20073;-76
2024/03/15 06:00:13;;;;;;;16.15;10.48;;;;;;;7.99;100.00;100570.94;6172563;23;20340;-76
2024/03/15 06:02:39;;;;;;;15.65;10.68;;;;;;;8.07;100.00;100564.38;6149703;23;20165;-76
2024/03/15 06:05:05;;;;;;;;;;;;;;;8.17;100.00;100567.09;6125193;23;20024;-76
2024/03/15 06:07:34;;;;;;;13.07;9.65;;;;;;;8.26;100.00;100565.53;6124350;23;19918;-78
2024/03/15 06:09:59;;;;;;;17.45;12.10;;;;;;;8.36;100.00;100568.28;6125527;23;20052;-75
2024/03/15 06:12:27;;;;;;;13.98;11.05;;;;;;;8.47;100.00;100561.16;6149394;23;20071;-77
2024/03/15 06:14:54;;;;;;;15.45;11.02;;;;;;;8.58;100.00;100570.00;6100911;23;20087;-76
2024/03/15 06:17:20;;;;;;;14.00;10.32;;;;;;;8.67;100.00;100563.91;6174302;23;20024;-77
2024/03/15 06:19:46;;;;;;;;;;;;;;;8.77;100.00;100568.47;6150008;23;20463;-76
2024/03/15 06:22:13;;;;;;;16.15;11.25;;;;;;;8.82;100.00;100571.19;6124566;23;19951;-75
2024/03/15 06:24:39;;;;;;;14.50;10.27;;;;;;;8.89;100.00;100576.28;6149861;23;20013;-78
2024/03/15 06:27:13;;;;;;;13.45;9.77;;;;;;;8.95;100.00;100569.88;6172985;23;20020;-76
2024/03/15 06:29:40;;;;;;;14.68;9.93;;;;;;;8.96;100.00;100558.94;6149826;23;20017;-76
2024/03/15 06:32:14;;;;;;;12.65;8.90;;;;;;;9.01;100.00;100574.97;6148907;23;20345;-76
2024/03/15 06:34:40;;;;;;;14.63;9.30;;;;;;;9.05;100.00;100571.78;6119767;23;20017;-75
2024/03/15 06:37:06;;;;;;;14.13;9.07;;;;;;;9.08;100.00;100584.59;6148790;23;20042;-78
2024/03/15 06:42:20;;;;;;;12.43;9.80;;;;;;;9.12;100.00;100572.31;6149225;23;20028;-75
2024/03/15 06:45:44;;;;;;;11.88;9.32;;;;;;;9.13;100.00;100571.25;6149004;23;20009;-76
2024/03/15 06:47:52;;;;;;;13.10;9.18;;;;;;;9.15;100.00;100579.81;6120847;23;20086;-77
2024/03/15 06:52:45;;;;;;;;;;;;;;;9.18;100.00;100568.59;6173329;23;20021;-75
2024/03/15 06:55:11;;;;;;;13.02;9.27;;;;;;;9.20;100.00;100574.47;6123918;23;19908;-74
2024/03/15 06:57:38;;;;;;;;;;;;;;;9.22;100.00;100575.03;6124941;23;20071;-78
2024/03/15 07:00:09;;;;;;;13.07;9.65;;;;;;;9.21;100.00;100573.41;6119169;23;19912;-77
2024/03/15 07:02:40;;;;;;;12.55;8.90;;;;;;;9.23;100.00;100577.44;6143916;23;20075;-76
2024/03/15 07:05:07;;;;;;;14.48;9.23;;;;;;;9.27;100.00;100583.03;6143942;23;20530;-76
2024/03/15 07:07:37;;;;;;;10.55;8.73;;;;;;;9.29;100.00;100576.38;6145795;23;20017;-74
2024/03/15 07:10:04;;;;;;;12.18;9.38;;;;;;;9.32;100.00;100583.06;6119951;23;20018;-76
2024/03/15 07:12:30;;;;;;;14.55;9.98;;;;;;;9.35;100.00;100577.19;6119325;23;20025;-75
2024/03/15 07:14:55;;;;;;;;;;;;;;;9.39;100.00;100580.91;6143517;23;20013;-75
2024/03/15 07:17:22;;;;;;;13.52;9.30;;;;;;;9.41;100.00;100583.31;6144054;23;20634;-74
2024/03/15 07:19:49;;;;;;;13.75;9.25;;;;;;;9.46;100.00;100581.47;6096366;23;20127;-78
2024/03/15 07:22:16;;;;;;;12.50;9.35;;;;;;;9.50;100.00;100579.88;6118793;23;20455;-77
2024/03/15 07:24:43;;;;;;;13.90;9.52;;;;;;;9.54;100.00;100588.94;6144152;23;20080;-77
2024/03/15 07:27:09;;;;;;;13.23;9.43;;;;;;;9.58;100.00;100582.00;6118175;23;20022;-75
2024/03/15 07:29:36;;;;;;;13.43;8.93;;;;;;;9.63;100.00;100575.88;6120512;23;20021;-75
2024/03/15 07:32:01;;;;;;;12.55;8.75;;;;;;;9.70;100.00;100581.75;6143183;23;20009;-75
2024/03/15 07:34:27;;;;;;;12.77;9.15;;;;;;;9.75;100.00;100572.91;6120072;23;20060;-74
2024/03/15 07:36:56;;;;;;;13.05;9.40;;;;;;;9.82;100.00;100581.47;6145300;23;20014;-77
2024/03/15 07:39:32;;;;;;;13.55;9.88;;;;;;;9.88;100.00;100587.63;6119809;23;20021;-75
2024/03/15 07:41:59;;;;;;;15.50;9.98;;;;;;;9.92;100.00;100584.16;6119566;23;20068;-75
2024/03/15 07:44:27;;;;;;;13.75;8.93;;;;;;;10.00;100.00;100582.81;6120249;23;20018;-77
2024/03/15 07:46:57;;;;;;;13.00;10.25;;;;;;;10.06;100.00;100587.88;6142087;23;20021;-76
2024/03/15 07:49:23;;;;;;;13.63;8.77;;;;;;;10.12;100.00;100583.34;6119568;23;20088;-74
2024/03/15 07:51:50;;;;;;;15.93;10.40;;;;;;;10.18;100.00;100584.94;6143724;23;20017;-78
2024/03/15 07:54:18;;;;;;;12.98;8.85;;;;;;;10.24;100.00;100589.25;6143420;23;20021;-74
2024/03/15 07:56:44;;;;;;;13.60;9.32;;;;;;;10.31;100.00;100583.59;6143738;23;20013;-75
2024/03/15 07:59:12;;;;;;;13.32;9.52;;;;;;;10.38;100.00;100592.94;6143237;23;20088;-77
2024/03/15 08:01:39;;;;;;;10.48;7.80;;;;;;;10.42;100.00;100587.84;6143833;23;20648;-77
2024/03/15 08:04:08;;;;;;;12.32;8.80;;;;;;;10.47;100.00;100595.88;6093996;23;20060;-77
2024/03/15 08:06:38;;;;;;;11.07;8.35;;;;;;;10.52;100.00;100587.81;6120549;23;20061;-76
2024/03/15 08:09:04;;;;;;;12.90;8.88;;;;;;;10.55;100.00;100592.63;6095724;23;20024;-76
2024/03/15 08:11:34;;;;;;;12.98;8.77;;;;;;;10.61;100.00;100590.72;6121558;23;20026;-76
2024/03/15 08:14:05;;;;;;;11.13;8.82;;;;;;;10.66;100.00;100590.72;6146500;23;20041;-76
2024/03/15 08:16:34;;;;;;;13.18;8.60;;;;;;;10.69;100.00;100586.69;6144743;23;20013;-78
2024/03/15 08:19:06;;;;;;;14.48;9.38;;;;;;;10.71;100.00;100573.84;6095530;23;20045;-77
2024/03/15 08:21:33;;;;;;;12.77;8.57;;;;;;;10.75;100.00;100590.94;6115224;23;20023;-78
2024/03/15 08:24:09;;;;;;;13.40;8.48;;;;;;;10.79;100.00;100586.66;6095600;23;20017;-77
2024/03/15 08:26:39;;;;;;;11.65;8.02;;;;;;;10.85;100.00;100582.88;6145275;23;20020;-78
2024/03/15 08:29:08;;;;;;;12.43;9.25;;;;;;;10.92;100.00;100588.75;6118856;23;20014;-75
2024/03/15 08:31:34;;;;;;;11.57;8.90;;;;;;;10.97;100.00;100591.38;6144965;23;20092;-74
2024/03/15 08:34:02;;;;;;;11.07;8.55;;;;;;;11.04;100.00;100589.22;6144509;23;20021;-76
2024/03/15 08:36:29;;;;;;;11.23;8.75;;;;;;;11.12;100.00;100585.97;6144901;23;20014;-79
2024/03/15 08:38:55;;;;;;;12.80;8.45;;;;;;;11.22;100.00;100585.09;6094695;23;20005;-78
2024/03/15 08:41:21;;;;;;;12.98;9.20;;;;;;;11.31;100.00;100588.81;6121450;23;20020;-77
2024/03/15 08:43:49;;;;;;;11.40;7.95;;;;;;;11.41;100.00;100585.25;6145088;23;20597;-78
2024/03/15 08:46:15;;;;;;;10.32;7.93;;;;;;;11.52;100.00;100581.41;6121826;23;20010;-78
2024/03/15 08:48:42;;;;;;;11.45;7.75;;;;;;;11.64;100.00;100571.09;6146218;23;20028;-78
2024/03/15 08:51:09;;;;;;;11.23;8.10;;;;;;;11.74;100.00;100573.72;6096261;23;20053;-78
2024/03/15 08:53:35;;;;;;;11.48;8.00;;;;;;;11.89;100.00;100582.75;6121145;23;20017;-78
2024/03/15 08:56:01;;;;;;;14.02;8.27;;;;;;;11.98;100.00;100581.06;6121730;23;20379;-78
2024/03/15 08:58:27;;;;;;;11.88;7.68;;;;;;;12.12;100.00;100576.63;6124899;23;20080;-79
2024/03/15 09:00:57;;;;;;;12.55;7.70;;;;;;;12.32;100.00;100577.50;6101474;23;20017;-75
2024/03/15 09:03:23;;;;;;;12.50;7.80;;;;;;;12.45;100.00;100568.75;6124706;23;20063;-78
2024/03/15 09:06:08;;;;;;;10.75;8.20;;;;;;;12.54;100.00;100572.44;6150831;23;20068;-79
2024/03/15 09:08:36;;;;;;;10.50;6.95;;;;;;;12.58;100.00;100574.25;6150616;23;20020;-76
2024/03/15 09:11:02;;;;;;;10.00;7.25;;;;;;;12.62;100.00;100577.16;6150942;23;20013;-77
2024/03/15 09:13:29;;;;;;;9.75;7.32;;;;;;;12.64;100.00;100577.69;6149651;23;20096;-78
2024/03/15 09:15:57;;;;;;;12.13;7.70;;;;;;;12.63;100.00;100581.44;6151653;23;20016;-79
2024/03/15 09:18:23;;;;;;;9.60;6.63;;;;;;;12.63;100.00;100577.97;6076937;23;20083;-77
2024/03/15 09:20:51;;;;;;;9.82;7.00;;;;;;;12.68;100.00;100588.66;6149485;23;20017;-77
2024/03/15 09:23:19;;;;;;;11.50;7.25;;;;;;;12.67;100.00;100582.50;6124259;23;20005;-79
2024/03/15 09:25:44;;;;;;;10.07;6.80;;;;;;;12.67;100.00;100585.19;6126778;23;20013;-78
2024/03/15 09:28:11;;;;;;;9.95;7.00;;;;;;;12.66;100.00;100590.81;6148689;23;20011;-77
2024/03/15 09:30:42;;;;;;;10.52;7.10;;;;;;;12.69;100.00;100584.88;6101369;23;20013;-78
2024/03/15 09:33:09;;;;;;;8.75;5.95;;;;;;;12.68;100.00;100594.84;6124959;23;20032;-78
2024/03/15 09:35:40;;;;;;;9.20;6.45;;;;;;;12.75;100.00;100599.84;6151142;23;20097;-77
2024/03/15 09:38:09;;;;;;;8.50;5.82;;;;;;;12.77;100.00;100603.84;6125031;23;20017;-76
2024/03/15 09:40:35;;;;;;;10.73;6.05;;;;;;;12.77;100.00;100606.53;6175797;23;20036;-79
2024/03/15 09:43:00;;;;;;;9.40;6.50;;;;;;;12.71;100.00;100604.19;6150331;23;20031;-77
2024/03/15 09:45:27;;;;;;;10.82;7.43;;;;;;;12.58;100.00;100603.00;6077708;23;20131;-79
2024/03/15 09:47:53;;;;;;;8.20;5.32;;;;;;;12.45;100.00;100611.72;6126182;23;20013;-79
2024/03/15 09:50:21;;;;;;;9.63;6.47;;;;;;;12.34;100.00;100604.88;6126192;23;20017;-79
2024/03/15 09:52:49;;;;;;;8.32;5.68;;;;;;;12.26;100.00;100608.97;6149461;23;20012;-77
2024/03/15 09:55:19;;;;;;;11.63;6.05;;;;;;;12.18;100.00;100610.38;6125191;23;20017;-78
2024/03/15 09:57:48;;;;;;;8.32;7.07;;;;;;;12.08;100.00;100617.75;6126015;23;20151;-76
2024/03/15 10:00:17;;;;;;;11.98;7.97;;;;;;;11.91;100.00;100618.16;6071280;23;20161;-77
2024/03/15 10:02:47;;;;;;;10.85;6.85;;;;;;;11.81;100.00;100627.09;6096835;23;20049;-78
2024/03/15 10:05:14;;;;;;;10.38;6.47;;;;;;;11.73;100.00;100623.09;6072223;23;20024;-77
2024/03/15 10:07:40;;;;;;;9.98;6.60;;;;;;;11.65;100.00;100622.88;6121048;23;20013;-75
2024/03/15 10:10:11;;;;;;;9.60;7.07;;;;;;;11.58;100.00;100619.72;6096038;23;20095;-75
2024/03/15 10:12:41;;;;;;;11.73;7.80;;;;;;;11.56;100.00;100628.03;6071830;23;20021;-76
2024/03/15 10:15:14;;;;;;;10.55;6.82;;;;;;;11.54;100.00;100627.53;6095539;23;20024;-76
2024/03/15 10:17:43;;;;;;;9.25;6.43;;;;;;;11.51;100.00;100620.03;6095494;23;20072;-76
2024/03/15 10:20:17;;;;;;;8.68;6.22;;;;;;;11.51;100.00;100625.38;6119608;23;20021;-75
2024/03/15 10:22:45;;;;;;;10.70;6.35;;;;;;;11.53;100.00;100617.09;6096662;23;20017;-75
2024/03/15 10:25:21;;;;;;;9.98;6.32;;;;;;;11.58;100.00;100623.19;6047835;23;20095;-76
2024/03/15 10:27:50;;;;;;;8.88;5.75;;;;;;;11.63;100.00;100623.16;6119149;23;20029;-76
2024/03/15 10:30:24;;;;;;;9.27;6.07;;;;;;;11.67;100.00;100623.41;6095070;23;20058;-76
2024/03/15 10:32:50;;;;;;;9.25;5.97;;;;;;;11.69;100.00;100626.63;6095594;23;20025;-76
2024/03/15 10:35:19;;;;;;;8.48;6.60;;;;;;;11.76;100.00;100622.53;6120208;23;20018;-77
2024/03/15 10:37:45;;;;;;;8.57;6.25;;;;;;;11.84;100.00;100623.84;6119435;23;20025;-77
2024/03/15 10:40:13;;;;;;;9.00;6.25;;;;;;;11.92;100.00;100625.13;6071583;23;20080;-77
2024/03/15 10:42:44;;;;;;;9.63;6.35;;;;;;;12.03;100.00;100621.28;6095697;23;20017;-75
2024/03/15 10:45:15;;;;;;;11.07;7.13;;;;;;;12.06;100.00;100626.09;6071070;23;20494;-75
2024/03/15 10:47:41;;;;;;;11.18;7.78;;;;;;;12.07;100.00;100629.56;6120093;23;20041;-74
2024/03/15 10:50:13;;;;;;;11.70;6.95;;;;;;;12.07;100.00;100622.31;6095901;23;20017;-75
2024/03/15 10:52:41;;;;;;;11.93;8.13;;;;;;;12.07;100.00;100637.63;6119089;23;20040;-78
2024/03/15 10:55:15;;;;;;;14.57;9.48;;;;;;;12.06;100.00;100636.81;6070736;23;20414;-77
2024/03/15 10:57:41;;;;;;;13.07;9.00;;;;;;;12.09;100.00;100632.78;6119592;23;20013;-75
2024/03/15 11:00:17;;;;;;;14.15;8.80;;;;;;;12.13;100.00;100629.25;6138813;23;20020;-75
2024/03/15 11:02:49;;;;;;;13.52;9.05;;;;;;;12.26;100.00;100631.28;6144145;23;20063;-74
2024/03/15 11:05:20;;;;;;;;;;;;;;;12.35;100.00;100636.03;6095872;23;20017;-76
2024/03/15 11:07:46;;;;;;;;;;;;;;;12.51;100.00;100640.16;6145033;23;20321;-75
2024/03/15 11:10:21;;;;;;;12.55;8.13;;;;;;;12.55;100.00;100638.50;6143686;23;19913;-77
2024/03/15 11:12:53;;;;;;;12.95;8.32;;;;;;;12.65;100.00;100638.38;6120129;23;20033;-75
2024/03/15 11:15:21;;;;;;;13.18;9.00;;;;;;;12.65;100.00;100627.63;6113392;23;20018;-76
2024/03/15 11:18:02;;;;;;;9.48;8.10;;;;;;;12.73;100.00;100627.00;6119111;23;20037;-77
2024/03/15 11:20:54;;;;;;;12.43;8.32;;;;;;;12.79;100.00;100627.75;6145182;23;20013;-75
2024/03/15 11:23:25;;;;;;;12.75;8.80;;;;;;;12.81;100.00;100631.75;6118765;23;20047;-77
2024/03/15 11:25:59;;;;;;;10.80;8.05;;;;;;;12.79;100.00;100636.59;6120886;23;20726;-74